WEATHER DATA

YESTERDAY
Time Temp. Dewp. Hum. Wind dir Wind speed Wind gust Bar. 1h Prec. 24h Prec.
00:04 7.8 4.7 81 146 0.3 1.1 1026.6 0.0000 0.0000
00:13 7.8 4.9 82 191 0.3 0.6 1026.7 0.0000 0.0000
00:23 7.7 4.8 82 135 0.3 0.6 1026.7 0.0000 0.0000
00:34 7.6 4.7 82 145 0.3 0.6 1026.7 0.0000 0.0000
00:44 7.4 4.5 82 60 0.6 1.4 1026.8 0.0000 0.0000
00:54 7.3 4.4 82 62 0.6 1.4 1026.8 0.0000 0.0000
01:03 7.2 4.5 83 68 0.6 1.4 1026.7 0.0000 0.0000
01:14 7.1 4.4 83 67 0.6 1.4 1026.5 0.0000 0.0000
01:24 7.1 4.4 83 74 0.6 1.1 1026.3 0.0000 0.0000
01:34 7 4.5 84 90 0.3 1.1 1026.2 0.0000 0.0000
01:44 6.9 4.4 84 90 0.3 1.4 1026.2 0.0000 0.0000
01:54 6.8 4.1 83 69 0.6 1.4 1026.1 0.0000 0.0000
02:04 6.8 4.3 84 0.3 0.6 1026.1 0.0000 0.0000
02:14 6.7 4.2 84 69 0.6 1.4 1026 0.0000 0.0000
02:25 6.6 4.1 84 67 0.6 1.4 1025.9 0.0000 0.0000
02:34 6.5 4 84 74 0.6 1.4 1025.9 0.0000 0.0000
02:44 6.5 4 84 69 0.6 1.4 1026 0.0000 0.0000
02:55 6.4 3.9 84 70 0.6 1.4 1026 0.0000 0.0000
03:05 6.4 4.1 85 71 0.6 1.4 1025.8 0.0000 0.0000
03:15 6.4 4.1 85 90 0.3 1.1 1025.4 0.0000 0.0000
03:24 6.4 4.1 85 90 0.6 1.1 1025.4 0.0000 0.0000
03:35 6.3 4 85 71 0.6 1.4 1025.5 0.0000 0.0000
03:45 6.2 3.9 85 68 0.6 1.4 1025.4 0.0000 0.0000
03:55 6.1 3.6 84 123 0.3 0.6 1025.5 0.0000 0.0000
04:05 5.9 3.2 83 90 0.3 0.6 1025.7 0.0000 0.0000
04:15 5.7 3 83 90 0.3 1.1 1025.7 0.0000 0.0000
04:25 5.5 2.8 83 90 0.3 1.1 1025.6 0.0000 0.0000
04:35 5.3 2.8 84 219 0.3 0.6 1025.6 0.0000 0.0000
04:46 5.3 2.8 84 191 0.3 0.6 1025.5 0.0000 0.0000
04:55 5.1 2.6 84 156 0.3 0.6 1025.4 0.0000 0.0000
05:05 5 2.4 83 210 0.3 0.6 1025.5 0.0000 0.0000
05:16 4.9 2.4 84 188 0.3 0.6 1025.6 0.0000 0.0000
05:26 4.7 2.2 84 135 0.3 0.6 1025.5 0.0000 0.0000
05:36 4.6 2.1 84 90 0.3 0.6 1025.5 0.0000 0.0000
05:45 4.6 2.3 85 217 0.3 1.1 1025.4 0.0000 0.0000
06:00 4.6 2.3 85 45 0.3 0.6 1025.4 0.0000 0.0000
06:11 4.6 2.3 85 270 0.3 0.6 1025.6 0.0000 0.0000
06:14 4.6 2.3 85 225 0.3 0.6 1025.6 0.0000 0.0000
06:23 4.5 2 84 225 0.3 0.6 1025.8 0.0000 0.0000
06:33 4.4 2.1 85 0.3 0.6 1026 0.0000 0.0000
06:44 4.4 2.3 86 0 0.6 1025.9 0.0000 0.0000
06:54 4.6 2.6 87 90 0.3 0.6 1025.7 0.0000 0.0000
07:03 4.9 2.9 87 240 0.3 1.1 1025.9 0.0000 0.0000
07:13 5.3 3.5 88 228 1.7 4.2 1025.9 0.0000 0.0000
07:24 5.7 3.5 86 191 0.3 1.1 1026 0.0000 0.0000
07:34 6 3.8 86 90 0.3 1.1 1026.1 0.0000 0.0000
07:44 6.3 4.1 86 90 0.3 1.1 1026 0.0000 0.0000
07:54 6.8 4.8 87 90 0.3 0.6 1025.8 0.0000 0.0000
08:04 7.3 5.3 87 90 0.6 1.4 1025.8 0.0000 0.0000
08:14 7.9 5.7 86 90 0.6 1.4 1025.7 0.0000 0.0000
08:24 8.3 6.1 86 90 0.6 1.7 1025.5 0.0000 0.0000
08:35 8.7 6.5 86 90 0.6 1.7 1025.6 0.0000 0.0000
08:44 9.3 6.7 84 90 0.6 1.9 1025.6 0.0000 0.0000
08:54 9.8 7.1 83 90 0.6 1.4 1025.5 0.0000 0.0000
09:05 10.4 7.5 82 90 0.3 1.1 1025.5 0.0000 0.0000
09:15 11.1 7.8 80 90 0.3 1.1 1025.5 0.0000 0.0000
09:25 11.8 8.3 79 90 0.6 1.7 1025.4 0.0000 0.0000
09:34 12.5 8.4 76 112 0.6 1.7 1025.2 0.0000 0.0000
09:45 13.1 8.8 75 90 0.6 1.7 1025.1 0.0000 0.0000
10:01 13.8 9.3 74 90 0.6 1.7 1024.9 0.0000 0.0000
10:10 14.2 9.2 72 90 1.1 1.9 1024.7 0.0000 0.0000
10:21 14.6 9.6 72 90 0.6 1.7 1024.5 0.0000 0.0000
10:31 15 9.6 70 98 1.1 1.9 1024.3 0.0000 0.0000
10:41 15.3 9.7 69 90 0.6 1.7 1023.9 0.0000 0.0000
11:01 16.2 9.8 66 90 0.3 1.4 1023.6 0.0000 0.0000
11:11 16.5 9.9 65 107 1.1 2.5 1023.4 0.0000 0.0000
11:21 16.8 10 64 90 1.1 1.7 1023.3 0.0000 0.0000
11:32 17.1 10.2 64 26 0.6 1.4 1023 0.0000 0.0000
11:41 17.5 10.1 62 112 0.6 2.8 1022.7 0.0000 0.0000
11:55 17.8 10.2 61 113 1.1 2.8 1022.4 0.0000 0.0000
12:06 18.1 10.2 60 117 0.6 1.7 1021.9 0.0000 0.0000
12:16 18.5 10.3 59 90 0.6 1.7 1021.7 0.0000 0.0000
12:26 18.8 10.1 57 105 1.1 2.5 1021.5 0.0000 0.0000
12:36 19.1 10.4 57 90 0.6 1.9 1021.1 0.0000 0.0000
12:46 19.4 10.1 55 90 0.6 1.7 1020.9 0.0000 0.0000
12:56 19.7 10.1 54 90 1.1 2.5 1020.6 0.0000 0.0000
13:06 19.9 10 53 112 0.6 2.5 1020.3 0.0000 0.0000
13:17 20.4 9.9 51 99 1.1 2.5 1020 0.0000 0.0000
13:27 20.7 9.9 50 103 1.1 2.8 1019.8 0.0000 0.0000
13:36 20.9 9.8 49 102 1.1 2.5 1019.6 0.0000 0.0000
13:47 21.1 10 49 90 0.6 1.9 1019.5 0.0000 0.0000
13:57 21.2 9.8 48 90 0.3 1.4 1019.3 0.0000 0.0000
14:07 21.4 9.9 48 155 0.6 2.5 1019 0.0000 0.0000
14:16 21.5 9.7 47 111 0.6 1.4 1018.8 0.0000 0.0000
14:27 21.6 9.8 47 135 0.3 1.4 1018.7 0.0000 0.0000
14:37 21.8 10 47 140 0.3 1.7 1018.6 0.0000 0.0000
14:47 21.9 9.4 45 90 0.6 1.7 1018.3 0.0000 0.0000
14:57 22 9.5 45 90 0.6 1.7 1018.2 0.0000 0.0000
15:07 22 9.9 46 107 0.6 1.4 1018.1 0.0000 0.0000
15:17 22.1 9.3 44 102 1.1 1.7 1017.8 0.0000 0.0000
15:27 22.2 9.4 44 90 0.6 1.4 1017.7 0.0000 0.0000
15:38 22.4 9.2 43 101 1.1 2.8 1017.5 0.0000 0.0000
15:48 22.4 8.9 42 101 1.1 1.9 1017.5 0.0000 0.0000
15:57 22.4 9.2 43 90 1.1 1.7 1017.5 0.0000 0.0000
16:08 22.4 9.2 43 90 0.6 1.9 1017.4 0.0000 0.0000
16:18 22.4 9.2 43 90 0.6 1.7 1017.3 0.0000 0.0000
16:28 22.2 9 43 104 1.1 2.5 1017.3 0.0000 0.0000
16:38 22.1 8.9 43 90 0.3 1.4 1017.3 0.0000 0.0000
16:48 21.9 8.8 43 90 0.6 1.4 1017.3 0.0000 0.0000
16:58 21.7 8.9 44 112 0.6 1.4 1017.3 0.0000 0.0000
17:08 21.5 8.7 44 103 1.1 1.9 1017.3 0.0000 0.0000
17:18 21.2 8.5 44 90 0.6 1.4 1017.2 0.0000 0.0000
17:29 20.7 8.4 45 90 0.3 1.1 1017.2 0.0000 0.0000
17:38 20.2 8.9 48 90 0.3 0.6 1017.3 0.0000 0.0000
17:48 19.6 8.6 49 90 0.3 1.1 1017.3 0.0000 0.0000
17:59 18.9 8.6 51 90 0.3 0.6 1017.3 0.0000 0.0000
18:09 18.1 8.4 53 90 0.3 0.6 1017.2 0.0000 0.0000
18:18 17.5 8.1 54 90 0.3 0.6 1017.3 0.0000 0.0000
18:29 17.1 8.3 56 90 0.3 1.1 1017.3 0.0000 0.0000
18:39 16.8 8 56 90 0.3 0.6 1017.3 0.0000 0.0000
18:49 16.6 8.1 57 90 0.3 0.6 1017.2 0.0000 0.0000
18:59 16.3 8.3 59 90 0.3 0.6 1017.1 0.0000 0.0000
19:09 16.1 8.3 60 90 0.3 0.6 1017.1 0.0000 0.0000
19:19 15.8 8.1 60 90 0.3 0.6 1017.1 0.0000 0.0000
19:29 15.5 7.8 60 90 0.3 0.6 1017.1 0.0000 0.0000
19:39 15.3 7.8 61 90 0.3 0.6 1017.1 0.0000 0.0000
19:50 15 7.5 61 90 0.3 0.6 1017.1 0.0000 0.0000
19:59 14.5 7.3 62 90 0.3 0.6 1017 0.0000 0.0000
20:09 14 7.1 63 90 0.3 0.6 1016.8 0.0000 0.0000
20:17 13.8 7.1 64 90 0.3 1.1 1016.6 0.0000 0.0000
20:30 13.3 6.9 65 90 0.3 1.1 1016.4 0.0000 0.0000
20:39 13.1 7.1 67 90 0.3 0.6 1016.2 0.0000 0.0000
20:50 12.8 6.8 67 90 0.3 0.6 1016.2 0.0000 0.0000
21:00 12.6 6.9 68 90 0.3 0.6 1016 0.0000 0.0000
21:10 12.4 6.7 68 90 0.3 0.6 1015.8 0.0000 0.0000
21:20 12.1 6.6 69 135 0.3 0.6 1015.5 0.0000 0.0000
21:30 11.9 6.4 69 129 0.3 0.6 1015 0.0000 0.0000
21:40 11.6 6.3 70 135 0.3 0.6 1014.6 0.0000 0.0000
21:50 11.6 6.5 71 0 0.6 1014.3 0.0000 0.0000
22:01 11.4 6.3 71 129 0.3 1.1 1014 0.0000 0.0000
22:10 11.4 6.3 71 90 0.3 0.6 1013.8 0.0000 0.0000
22:20 11.2 6.1 71 128 0.3 0.6 1013.5 0.0000 0.0000
22:30 11 6 71 0 0.6 1013.3 0.0000 0.0000
22:41 10.9 6.1 72 90 0.3 1.1 1013.2 0.0000 0.0000
22:51 10.7 5.7 71 90 0.3 1.1 1013 0.0000 0.0000
23:00 10.5 5.7 72 150 0.3 0.6 1013 0.0000 0.0000
23:11 10.4 5.6 72 127 0.3 1.1 1012.8 0.0000 0.0000
23:21 10.3 5.7 73 90 0.3 1.1 1012.6 0.0000 0.0000
23:31 10.3 5.7 73 135 0.3 0.6 1012.7 0.0000 0.0000
23:41 10.3 6.1 75 180 0.3 1.1 1013 0.0000 0.0000
23:51 10.8 7.5 80 90 0.6 1.7 1014.7 0.0000 0.0000

DAY STATISTIC

2019-08-18
TEMPERATURE
AVERAGE
12.7
HIGH
22.4
15:38
LOW
4.4
06:33
PRESSURE
AVERAGE
1021.2
HIGH
1026.8
00:44
LOW
1012.6
23:21
DEWPOINT
AVERAGE
6.7
HIGH
10.4
12:36
LOW
2.0
06:23
HUMIDITY
AVERAGE
69
HIGH
88
07:13
LOW
42
15:48
WIND SPEED
AVERAGE
0.5
HIGH
1.7
07:13
WIND GUST
AVERAGE
1.3
HIGH
4.2
07:13
WIND DIRECTION
PREVAILING
E
69.5%
N
0.0
NE
4.3
E
69.5
SE
13.5
S
3.5
SW
5.0
W
0.7
NW
0.0
PRECIPITATION
RAIN HOUR
0.0
RAIN DAY
0.0
TEMPERATURE (°C)
LOW
4.4
HIGH
22.4
AVERAGE
12.7
PRESSURE (hpa)
LOW
1012.6
HIGH
1026.8
AVERAGE
1021.2
DEVICE